createdAt,value
2018-06-28T00:00:56.883Z,78.82
2018-06-28T00:01:56.888Z,78.92
2018-06-28T00:02:56.888Z,78.92
2018-06-28T00:03:56.894Z,79.21
2018-06-28T00:04:56.901Z,79.11
2018-06-28T00:05:56.898Z,79.11
2018-06-28T00:06:56.900Z,79.49
2018-06-28T00:07:56.903Z,79.21
2018-06-28T00:08:56.988Z,79.78
2018-06-28T00:09:56.908Z,80.35
2018-06-28T00:10:56.910Z,80.55
2018-06-28T00:11:56.913Z,80.35
2018-06-28T00:12:56.929Z,81.02
2018-06-28T00:13:56.918Z,80.60
2018-06-28T00:14:56.924Z,80.64
2018-06-28T00:15:56.924Z,80.03
2018-06-28T00:16:56.925Z,80.55
2018-06-28T00:17:56.929Z,81.18
2018-06-28T00:18:56.932Z,80.99
2018-06-28T00:19:56.935Z,81.31
2018-06-28T00:20:56.937Z,81.31
2018-06-28T00:21:56.942Z,81.27
2018-06-28T00:22:56.942Z,81.37
2018-06-28T00:23:56.944Z,81.27
2018-06-28T00:24:56.944Z,81.75
2018-06-28T00:25:56.947Z,81.95
2018-06-28T00:26:56.953Z,81.85
2018-06-28T00:27:56.954Z,82.04
2018-06-28T00:28:56.955Z,82.14
2018-06-28T00:29:56.957Z,81.75
2018-06-28T00:30:56.961Z,82.42
2018-06-28T00:31:56.963Z,82.14
2018-06-28T00:32:56.968Z,81.95
2018-06-28T00:33:56.968Z,82.14
2018-06-28T00:34:56.968Z,82.52
2018-06-28T00:35:56.974Z,82.62
2018-06-28T00:36:56.973Z,83.19
2018-06-28T00:37:56.978Z,82.90
2018-06-28T00:38:56.980Z,83.29
2018-06-28T00:39:56.981Z,83.00
2018-06-28T00:40:56.984Z,83.09
2018-06-28T00:41:56.987Z,82.42
2018-06-28T00:42:57.027Z,83.09
2018-06-28T00:43:56.991Z,82.90
2018-06-28T00:44:56.990Z,83.48
2018-06-28T00:45:56.992Z,83.38
2018-06-28T00:46:56.989Z,83.58
2018-06-28T00:47:56.998Z,83.48
2018-06-28T00:48:57.000Z,83.53
2018-06-28T00:49:57.001Z,84.11
2018-06-28T00:50:57.006Z,84.01
2018-06-28T00:51:57.001Z,83.82
2018-06-28T00:52:57.006Z,83.63
2018-06-28T00:53:57.011Z,83.53
2018-06-28T00:54:57.013Z,83.53
2018-06-28T00:55:57.016Z,83.82
2018-06-28T00:56:57.015Z,83.44
2018-06-28T00:57:57.019Z,83.53
2018-06-28T00:58:57.024Z,83.92
2018-06-28T00:59:57.024Z,84.01
2018-06-28T01:00:57.028Z,84.20
2018-06-28T01:01:57.027Z,83.53
2018-06-28T01:02:57.031Z,83.25
2018-06-28T01:03:57.036Z,84.01
2018-06-28T01:04:57.029Z,84.01
2018-06-28T01:05:57.042Z,84.01
2018-06-28T01:06:57.038Z,84.20
2018-06-28T01:07:57.038Z,84.01
2018-06-28T01:08:57.040Z,83.92
2018-06-28T01:09:57.041Z,84.11
2018-06-28T01:10:57.046Z,84.58
2018-06-28T01:11:57.051Z,84.68
2018-06-28T01:12:57.048Z,84.39
2018-06-28T01:13:57.045Z,84.01
2018-06-28T01:14:57.052Z,84.20
2018-06-28T01:15:57.054Z,84.01
2018-06-28T01:16:57.057Z,84.11
2018-06-28T01:17:57.056Z,84.11
2018-06-28T01:18:57.059Z,84.01
2018-06-28T01:19:57.061Z,84.49
2018-06-28T01:20:57.059Z,84.58
2018-06-28T01:21:57.065Z,84.20
2018-06-28T01:22:57.072Z,84.45
2018-06-28T01:23:57.069Z,84.58
2018-06-28T01:24:57.072Z,84.92
2018-06-28T01:25:57.073Z,84.64
2018-06-28T01:26:57.073Z,84.74
2018-06-28T01:27:57.076Z,84.74
2018-06-28T01:28:57.077Z,84.97
2018-06-28T01:29:57.079Z,84.88
2018-06-28T01:30:57.080Z,84.78
2018-06-28T01:31:57.083Z,84.58
2018-06-28T01:32:57.083Z,84.45
2018-06-28T01:33:57.078Z,84.68
2018-06-28T01:34:57.085Z,84.39
2018-06-28T01:35:57.095Z,84.49
2018-06-28T01:36:57.091Z,84.39
2018-06-28T01:37:57.094Z,84.39
2018-06-28T01:38:57.095Z,84.30
2018-06-28T01:39:57.099Z,84.30
2018-06-28T01:40:57.097Z,84.30
2018-06-28T01:41:57.092Z,84.58
2018-06-28T01:42:57.101Z,84.45
2018-06-28T01:43:57.099Z,84.35
2018-06-28T01:44:57.105Z,84.35
2018-06-28T01:45:57.113Z,84.35
2018-06-28T01:46:57.103Z,84.49
2018-06-28T01:47:57.123Z,84.39
2018-06-28T01:48:57.111Z,84.39
2018-06-28T01:49:57.107Z,83.97
2018-06-28T01:50:57.114Z,84.06
2018-06-28T01:51:57.115Z,84.16
2018-06-28T01:52:57.161Z,84.45
2018-06-28T01:53:57.119Z,84.35
2018-06-28T01:54:57.118Z,84.55
2018-06-28T01:55:57.120Z,84.35
2018-06-28T01:56:57.130Z,84.55
2018-06-28T01:57:57.128Z,84.64
2018-06-28T01:58:57.130Z,84.92
2018-06-28T01:59:57.130Z,84.64
2018-06-28T02:00:57.133Z,85.50
2018-06-28T02:01:57.135Z,85.31
2018-06-28T02:02:57.142Z,85.21
2018-06-28T02:03:57.138Z,85.79
2018-06-28T02:04:57.139Z,85.69
2018-06-28T02:05:57.141Z,85.79
2018-06-28T02:06:57.142Z,85.79
2018-06-28T02:07:57.145Z,85.50
2018-06-28T02:08:57.144Z,85.41
2018-06-28T02:09:57.151Z,85.31
2018-06-28T02:10:57.150Z,85.60
2018-06-28T02:11:57.147Z,85.50
2018-06-28T02:12:57.151Z,85.60
2018-06-28T02:13:57.146Z,85.31
2018-06-28T02:14:57.151Z,85.65
2018-06-28T02:15:57.156Z,85.94
2018-06-28T02:16:57.158Z,86.22
2018-06-28T02:17:57.158Z,86.13
2018-06-28T02:18:57.159Z,86.04
2018-06-28T02:19:57.174Z,86.32
2018-06-28T02:20:57.164Z,86.32
2018-06-28T02:21:57.165Z,86.32
2018-06-28T02:22:57.160Z,86.22
2018-06-28T02:23:57.167Z,86.32
2018-06-28T02:24:57.163Z,86.32
2018-06-28T02:25:57.170Z,86.22
2018-06-28T02:26:57.173Z,86.04
2018-06-28T02:27:57.174Z,86.04
2018-06-28T02:28:57.175Z,86.22
2018-06-28T02:29:57.178Z,86.13
2018-06-28T02:30:57.177Z,86.70
2018-06-28T02:31:57.179Z,86.32
2018-06-28T02:32:57.179Z,86.99
2018-06-28T02:33:57.182Z,86.70
2018-06-28T02:34:57.191Z,86.80
2018-06-28T02:35:57.181Z,86.70
2018-06-28T02:36:57.187Z,87.18
2018-06-28T02:37:57.188Z,87.27
2018-06-28T02:38:57.187Z,87.08
2018-06-28T02:39:57.190Z,86.99
2018-06-28T02:40:57.191Z,87.27
2018-06-28T02:41:57.191Z,86.90
2018-06-28T02:42:57.201Z,87.18
2018-06-28T02:43:57.194Z,86.61
2018-06-28T02:44:57.197Z,87.66
2018-06-28T02:45:57.197Z,87.18
2018-06-28T02:46:57.196Z,86.99
2018-06-28T02:47:57.198Z,87.85
2018-06-28T02:48:57.201Z,87.47
2018-06-28T02:49:57.201Z,87.47
2018-06-28T02:50:57.201Z,87.37
2018-06-28T02:51:57.200Z,87.18
2018-06-28T02:52:57.204Z,87.27
2018-06-28T02:53:57.209Z,87.18
2018-06-28T02:54:57.207Z,87.71
2018-06-28T02:55:57.208Z,87.08
2018-06-28T02:56:57.208Z,87.62
2018-06-28T02:57:57.211Z,87.62
2018-06-28T02:58:57.211Z,87.43
2018-06-28T02:59:57.213Z,87.47
2018-06-28T03:00:57.207Z,87.43
2018-06-28T03:01:57.213Z,87.62
2018-06-28T03:02:57.217Z,87.66
2018-06-28T03:03:57.218Z,87.71
2018-06-28T03:04:57.216Z,87.23
2018-06-28T03:05:57.219Z,87.90
2018-06-28T03:06:57.230Z,87.81
2018-06-28T03:07:57.222Z,88.00
2018-06-28T03:08:57.220Z,87.85
2018-06-28T03:09:57.224Z,87.37
2018-06-28T03:10:57.223Z,87.37
2018-06-28T03:11:57.226Z,87.81
2018-06-28T03:12:57.225Z,87.52
2018-06-28T03:13:57.223Z,87.90
2018-06-28T03:14:57.236Z,87.71
2018-06-28T03:15:57.229Z,87.71
2018-06-28T03:16:57.243Z,87.90
2018-06-28T03:17:57.230Z,87.90
2018-06-28T03:18:57.231Z,88.09
2018-06-28T03:19:57.235Z,88.57
2018-06-28T03:20:57.232Z,88.86
2018-06-28T03:21:57.236Z,88.76
2018-06-28T03:22:57.235Z,88.76
2018-06-28T03:23:57.237Z,88.76
2018-06-28T03:24:57.237Z,87.90
2018-06-28T03:25:57.237Z,87.81
2018-06-28T03:26:57.238Z,88.09
2018-06-28T03:27:57.242Z,87.90
2018-06-28T03:28:57.241Z,88.00
2018-06-28T03:29:57.242Z,88.00
2018-06-28T03:30:57.257Z,87.81
2018-06-28T03:31:57.248Z,87.71
2018-06-28T03:32:57.245Z,87.47
2018-06-28T03:33:57.254Z,87.43
2018-06-28T03:34:57.241Z,87.33
2018-06-28T03:35:57.252Z,87.43
2018-06-28T03:36:57.242Z,88.00
2018-06-28T03:37:57.408Z,88.00
2018-06-28T03:38:57.247Z,87.66
2018-06-28T03:39:57.251Z,87.62
2018-06-28T03:40:57.255Z,87.62
2018-06-28T03:41:57.255Z,87.43
2018-06-28T03:42:57.256Z,87.14
2018-06-28T03:43:57.256Z,87.18
2018-06-28T03:44:57.259Z,87.08
2018-06-28T03:45:57.279Z,87.14
2018-06-28T03:46:57.259Z,87.14
2018-06-28T03:47:57.262Z,87.66
2018-06-28T03:48:57.263Z,87.56
2018-06-28T03:49:57.264Z,87.23
2018-06-28T03:50:57.264Z,87.14
2018-06-28T03:51:57.267Z,87.47
2018-06-28T03:52:57.264Z,87.56
2018-06-28T03:53:57.266Z,87.66
2018-06-28T03:54:57.265Z,87.37
2018-06-28T03:55:57.267Z,87.66
2018-06-28T03:56:57.262Z,87.47
2018-06-28T03:57:57.272Z,87.66
2018-06-28T03:58:57.270Z,87.47
2018-06-28T03:59:57.273Z,86.99
2018-06-28T04:00:57.272Z,86.70
2018-06-28T04:01:57.275Z,87.18
2018-06-28T04:02:57.278Z,86.80
2018-06-28T04:03:57.279Z,86.90
2018-06-28T04:04:57.278Z,86.61
2018-06-28T04:05:57.281Z,86.99
2018-06-28T04:06:57.280Z,86.80
2018-06-28T04:07:57.284Z,86.99
2018-06-28T04:08:57.286Z,86.80
2018-06-28T04:09:57.285Z,86.32
2018-06-28T04:10:57.284Z,86.51
2018-06-28T04:11:57.287Z,85.94
2018-06-28T04:12:57.286Z,85.94
2018-06-28T04:13:57.289Z,86.41
2018-06-28T04:14:57.289Z,86.22
2018-06-28T04:15:57.289Z,86.13
2018-06-28T04:16:57.291Z,86.13
2018-06-28T04:17:57.288Z,86.13
2018-06-28T04:18:57.294Z,85.65
2018-06-28T04:19:57.295Z,85.65
2018-06-28T04:20:57.294Z,85.84
2018-06-28T04:21:57.297Z,85.60
2018-06-28T04:22:57.299Z,85.60
2018-06-28T04:23:57.294Z,85.69
2018-06-28T04:24:57.301Z,85.65
2018-06-28T04:25:57.301Z,85.65
2018-06-28T04:26:57.299Z,85.46
2018-06-28T04:27:57.300Z,85.75
2018-06-28T04:28:57.308Z,85.98
2018-06-28T04:29:57.312Z,85.69
2018-06-28T04:30:57.312Z,85.88
2018-06-28T04:31:57.307Z,85.50
2018-06-28T04:32:57.315Z,85.69
2018-06-28T04:33:57.308Z,85.31
2018-06-28T04:34:57.315Z,85.69
2018-06-28T04:35:57.317Z,85.50
2018-06-28T04:36:57.322Z,85.69
2018-06-28T04:37:57.319Z,85.60
2018-06-28T04:38:57.322Z,85.60
2018-06-28T04:39:57.325Z,85.60
2018-06-28T04:40:57.350Z,85.50
2018-06-28T04:41:57.328Z,85.69
2018-06-28T04:42:57.331Z,85.98
2018-06-28T04:43:57.330Z,85.69
2018-06-28T04:44:57.330Z,85.69
2018-06-28T04:45:57.330Z,85.88
2018-06-28T04:46:57.342Z,85.60
2018-06-28T04:47:57.339Z,85.21
2018-06-28T04:48:57.334Z,85.41
2018-06-28T04:49:57.483Z,85.31
2018-06-28T04:50:57.340Z,85.50
2018-06-28T04:51:57.355Z,85.25
2018-06-28T04:52:57.345Z,85.35
2018-06-28T04:53:57.346Z,85.35
2018-06-28T04:54:57.348Z,84.88
2018-06-28T04:55:57.351Z,84.97
2018-06-28T04:56:57.351Z,84.88
2018-06-28T04:57:57.353Z,84.97
2018-06-28T04:58:57.357Z,84.97
2018-06-28T04:59:57.355Z,84.88
2018-06-28T05:00:57.360Z,84.97
2018-06-28T05:01:57.362Z,85.06
2018-06-28T05:02:57.366Z,85.45
2018-06-28T05:03:57.373Z,85.45
2018-06-28T05:04:57.365Z,85.54
2018-06-28T05:05:57.367Z,85.06
2018-06-28T05:06:57.431Z,84.68
2018-06-28T05:07:57.371Z,84.78
2018-06-28T05:08:57.385Z,84.97
2018-06-28T05:09:57.381Z,84.49
2018-06-28T05:10:57.380Z,84.53
2018-06-28T05:11:57.383Z,84.53
2018-06-28T05:12:57.382Z,84.25
2018-06-28T05:13:57.384Z,84.05
2018-06-28T05:14:57.395Z,83.58
2018-06-28T05:15:57.389Z,83.95
2018-06-28T05:16:57.390Z,83.29
2018-06-28T05:17:57.391Z,83.33
2018-06-28T05:18:57.394Z,83.23
2018-06-28T05:19:57.398Z,83.14
2018-06-28T05:20:57.426Z,82.65
2018-06-28T05:21:57.402Z,82.65
2018-06-28T05:22:57.404Z,82.65
2018-06-28T05:23:57.408Z,82.65
2018-06-28T05:24:57.408Z,82.18
2018-06-28T05:25:57.413Z,82.37
2018-06-28T05:26:57.416Z,82.21
2018-06-28T05:27:57.418Z,82.31
2018-06-28T05:28:57.420Z,82.03
2018-06-28T05:29:57.422Z,81.74
2018-06-28T05:30:57.429Z,81.84
2018-06-28T05:31:57.432Z,81.16
2018-06-28T05:32:57.429Z,81.35
2018-06-28T05:33:57.427Z,81.84
2018-06-28T05:34:57.508Z,82.03
2018-06-28T05:35:57.443Z,82.03
2018-06-28T05:36:57.442Z,81.74
2018-06-28T05:37:57.449Z,81.84
2018-06-28T05:38:57.457Z,81.45
2018-06-28T05:39:57.455Z,81.45
2018-06-28T05:40:57.455Z,81.30
2018-06-28T05:41:57.453Z,81.10
2018-06-28T05:42:57.464Z,81.59
2018-06-28T05:43:57.465Z,81.49
2018-06-28T05:44:57.470Z,81.10
2018-06-28T05:45:57.471Z,81.10
2018-06-28T05:46:57.480Z,80.91
2018-06-28T05:47:57.478Z,81.78
2018-06-28T05:48:57.480Z,81.59
2018-06-28T05:49:57.484Z,81.59
2018-06-28T05:50:57.483Z,82.16
2018-06-28T05:51:57.492Z,82.16
2018-06-28T05:52:57.494Z,82.35
2018-06-28T05:53:57.503Z,82.35
2018-06-28T05:54:57.502Z,82.74
2018-06-28T05:55:57.506Z,82.70
2018-06-28T05:56:57.509Z,82.54
2018-06-28T05:57:57.512Z,82.93
2018-06-28T05:58:57.516Z,83.70
2018-06-28T05:59:57.519Z,83.80
2018-06-28T06:00:57.524Z,83.03
2018-06-28T06:01:57.525Z,82.93
2018-06-28T06:02:57.530Z,83.41
2018-06-28T06:03:57.536Z,83.41
2018-06-28T06:04:57.536Z,83.51
2018-06-28T06:05:57.568Z,83.51
2018-06-28T06:06:57.542Z,83.60
2018-06-28T06:07:57.550Z,83.70
2018-06-28T06:08:57.549Z,83.16
2018-06-28T06:09:57.555Z,83.03
2018-06-28T06:10:57.550Z,83.60
2018-06-28T06:11:57.567Z,82.87
2018-06-28T06:12:57.571Z,83.36
2018-06-28T06:13:57.563Z,83.26
2018-06-28T06:14:57.570Z,83.26
2018-06-28T06:15:57.578Z,83.26
2018-06-28T06:16:57.583Z,82.59
2018-06-28T06:17:57.582Z,82.87
2018-06-28T06:18:57.589Z,82.78
2018-06-28T06:19:57.590Z,82.34
2018-06-28T06:20:57.593Z,82.20
2018-06-28T06:21:57.601Z,82.49
2018-06-28T06:22:57.600Z,82.59
2018-06-28T06:23:57.609Z,83.49
2018-06-28T06:24:57.610Z,83.40
2018-06-28T06:25:57.613Z,83.49
2018-06-28T06:26:57.617Z,82.63
2018-06-28T06:27:57.620Z,83.20
2018-06-28T06:28:57.624Z,84.12
2018-06-28T06:29:57.628Z,83.54
2018-06-28T06:30:57.632Z,83.64
2018-06-28T06:31:57.636Z,83.54
2018-06-28T06:32:57.687Z,83.84
2018-06-28T06:33:57.646Z,84.22
2018-06-28T06:34:57.646Z,84.70
2018-06-28T06:35:57.653Z,84.85
2018-06-28T06:36:57.653Z,84.89
2018-06-28T06:37:57.656Z,85.37
2018-06-28T06:38:57.663Z,84.99
2018-06-28T06:39:57.673Z,85.18
2018-06-28T06:40:57.669Z,85.37
2018-06-28T06:41:57.671Z,84.80
2018-06-28T06:42:57.679Z,84.99
2018-06-28T06:43:57.680Z,84.60
2018-06-28T06:44:57.683Z,85.37
2018-06-28T06:45:57.688Z,84.99
2018-06-28T06:46:57.687Z,85.28
2018-06-28T06:47:57.697Z,84.99
2018-06-28T06:48:57.701Z,84.55
2018-06-28T06:49:57.707Z,84.26
2018-06-28T06:50:57.708Z,84.07
2018-06-28T06:51:57.712Z,84.07
2018-06-28T06:52:57.714Z,83.97
2018-06-28T06:53:57.719Z,83.53
2018-06-28T06:54:57.715Z,83.83
2018-06-28T06:55:57.727Z,83.34
2018-06-28T06:56:57.732Z,83.53
2018-06-28T06:57:57.735Z,83.44
2018-06-28T06:58:57.740Z,82.76
2018-06-28T06:59:57.744Z,82.76
2018-06-28T07:00:57.747Z,82.38
2018-06-28T07:01:57.749Z,82.32
2018-06-28T07:02:57.758Z,82.42
2018-06-28T07:03:57.762Z,82.52
2018-06-28T07:04:57.760Z,81.94
2018-06-28T07:05:57.766Z,82.14
2018-06-28T07:06:57.772Z,82.23
2018-06-28T07:07:57.780Z,81.94
2018-06-28T07:08:57.787Z,82.52
2018-06-28T07:09:57.782Z,82.32
2018-06-28T07:10:57.790Z,82.52
2018-06-28T07:11:57.791Z,81.94
2018-06-28T07:12:57.796Z,81.75
2018-06-28T07:13:57.803Z,81.84
2018-06-28T07:14:57.805Z,81.94
2018-06-28T07:15:57.813Z,81.21
2018-06-28T07:16:57.817Z,81.21
2018-06-28T07:17:57.819Z,81.30
2018-06-28T07:18:57.829Z,81.60
2018-06-28T07:19:57.832Z,81.40
2018-06-28T07:20:57.833Z,80.83
2018-06-28T07:21:57.837Z,81.30
2018-06-28T07:22:57.894Z,81.30
2018-06-28T07:23:57.848Z,80.83
2018-06-28T07:24:57.854Z,81.02
2018-06-28T07:25:57.858Z,81.63
2018-06-28T07:26:57.860Z,80.87
2018-06-28T07:27:57.867Z,80.87
2018-06-28T07:28:57.873Z,80.77
2018-06-28T07:29:57.881Z,81.02
2018-06-28T07:30:57.886Z,81.70
2018-06-28T07:31:57.894Z,81.70
2018-06-28T07:32:57.902Z,81.35
2018-06-28T07:33:57.909Z,81.63
2018-06-28T07:34:57.900Z,81.35
2018-06-28T07:35:57.934Z,80.77
2018-06-28T07:36:57.908Z,80.77
2018-06-28T07:37:57.925Z,80.58
2018-06-28T07:38:57.924Z,80.81
2018-06-28T07:39:57.925Z,80.38
2018-06-28T07:40:57.933Z,80.87
2018-06-28T07:41:57.939Z,79.23
2018-06-28T07:42:57.945Z,78.27
2018-06-28T07:43:57.949Z,78.17
2018-06-28T07:44:57.962Z,77.78
2018-06-28T07:45:57.959Z,78.36
2018-06-28T07:46:58.030Z,77.83
2018-06-28T07:47:57.975Z,77.63
2018-06-28T07:48:57.987Z,76.86
2018-06-28T07:49:57.979Z,76.86
2018-06-28T07:50:57.985Z,76.76
2018-06-28T07:51:57.992Z,76.67
2018-06-28T07:52:57.997Z,77.06
2018-06-28T07:53:58.002Z,76.48
2018-06-28T07:54:58.006Z,76.38
2018-06-28T07:55:58.013Z,76.18
2018-06-28T07:56:58.015Z,75.32
2018-06-28T07:57:58.025Z,75.65
2018-06-28T07:58:58.023Z,75.45
2018-06-28T07:59:58.035Z,75.36
2018-06-28T08:00:58.032Z,75.65
2018-06-28T08:01:58.041Z,75.07
2018-06-28T08:02:58.043Z,74.88
2018-06-28T08:03:58.055Z,74.97
2018-06-28T08:04:58.055Z,74.10
2018-06-28T08:05:58.062Z,74.01
2018-06-28T08:06:58.072Z,74.10
2018-06-28T08:07:58.076Z,73.53
2018-06-28T08:08:58.077Z,73.43
2018-06-28T08:09:58.088Z,73.33
2018-06-28T08:10:58.091Z,73.43
2018-06-28T08:11:58.093Z,72.31
2018-06-28T08:12:58.102Z,72.69
2018-06-28T08:13:58.104Z,72.60
2018-06-28T08:14:58.111Z,72.50
2018-06-28T08:15:58.118Z,72.79
2018-06-28T08:16:58.120Z,72.21
2018-06-28T08:17:58.129Z,71.83
2018-06-28T08:18:58.132Z,72.02
2018-06-28T08:19:58.138Z,71.83
2018-06-28T08:20:58.143Z,71.58
2018-06-28T08:21:58.149Z,71.44
2018-06-28T08:22:58.158Z,71.25
2018-06-28T08:23:58.161Z,71.54
2018-06-28T08:24:58.165Z,71.06
2018-06-28T08:25:58.174Z,71.19
2018-06-28T08:26:58.187Z,70.90
2018-06-28T08:27:58.184Z,70.51
2018-06-28T08:28:58.193Z,70.70
2018-06-28T08:29:58.203Z,70.70
2018-06-28T08:30:58.198Z,70.42
2018-06-28T08:31:58.200Z,70.51
2018-06-28T08:32:58.213Z,70.32
2018-06-28T08:33:58.213Z,70.09
2018-06-28T08:34:58.219Z,69.84
2018-06-28T08:35:58.335Z,69.93
2018-06-28T08:36:58.237Z,70.51
2018-06-28T08:37:58.237Z,70.22
2018-06-28T08:38:58.252Z,69.45
2018-06-28T08:39:58.253Z,69.35
2018-06-28T08:40:58.263Z,69.97
2018-06-28T08:41:58.265Z,69.29
2018-06-28T08:42:58.273Z,69.00
2018-06-28T08:43:58.274Z,68.71
2018-06-28T08:44:58.279Z,68.43
2018-06-28T08:45:58.288Z,68.77
2018-06-28T08:46:58.300Z,69.16
2018-06-28T08:47:58.301Z,69.58
2018-06-28T08:48:58.370Z,68.81
2018-06-28T08:49:58.313Z,69.39
2018-06-28T08:50:58.317Z,69.10
2018-06-28T08:51:58.327Z,68.71
2018-06-28T08:52:58.337Z,68.65
2018-06-28T08:53:58.347Z,68.17
2018-06-28T08:54:58.341Z,68.17
2018-06-28T08:55:58.349Z,67.78
2018-06-28T08:56:58.361Z,67.88
2018-06-28T08:57:58.423Z,68.23
2018-06-28T08:58:58.374Z,68.04
2018-06-28T08:59:58.375Z,68.71
2018-06-28T09:00:58.386Z,68.91
2018-06-28T09:01:58.395Z,68.52
2018-06-28T09:02:58.400Z,68.52
2018-06-28T09:03:58.405Z,68.26
2018-06-28T09:04:58.416Z,68.26
2018-06-28T09:05:58.424Z,67.88
2018-06-28T09:06:58.427Z,67.40
2018-06-28T09:07:58.440Z,67.01
2018-06-28T09:08:58.440Z,66.91
2018-06-28T09:09:58.447Z,67.49
2018-06-28T09:10:58.459Z,67.69
2018-06-28T09:11:58.466Z,67.78
2018-06-28T09:12:58.471Z,67.69
2018-06-28T09:13:58.478Z,68.01
2018-06-28T09:14:58.487Z,67.88
2018-06-28T09:15:58.490Z,67.43
2018-06-28T09:16:58.503Z,66.94
2018-06-28T09:17:58.506Z,66.46
2018-06-28T09:18:58.511Z,66.53
2018-06-28T09:19:58.516Z,66.91
2018-06-28T09:20:58.529Z,66.82
2018-06-28T09:21:58.537Z,66.94
2018-06-28T09:22:58.555Z,66.63
2018-06-28T09:23:58.547Z,66.85
2018-06-28T09:24:58.558Z,66.75
2018-06-28T09:25:58.565Z,66.17
2018-06-28T09:26:58.571Z,66.27
2018-06-28T09:27:58.580Z,66.17
2018-06-28T09:28:58.589Z,66.36
2018-06-28T09:29:58.596Z,65.98
2018-06-28T09:30:58.600Z,65.59
2018-06-28T09:31:58.610Z,65.40
2018-06-28T09:32:58.612Z,65.40
2018-06-28T09:33:58.621Z,64.14
2018-06-28T09:34:58.627Z,63.95
2018-06-28T09:35:58.639Z,64.92
2018-06-28T09:36:58.645Z,64.82
2018-06-28T09:37:58.650Z,64.18
2018-06-28T09:38:58.658Z,64.18
2018-06-28T09:39:58.667Z,64.37
2018-06-28T09:40:58.670Z,64.76
2018-06-28T09:41:58.678Z,62.92
2018-06-28T09:42:58.690Z,63.08
2018-06-28T09:43:58.697Z,63.08
2018-06-28T09:44:58.698Z,63.02
2018-06-28T09:45:58.708Z,62.73
2018-06-28T09:46:58.719Z,62.92
2018-06-28T09:47:58.768Z,61.66
2018-06-28T09:48:58.726Z,60.99
2018-06-28T09:49:58.741Z,61.18
2018-06-28T09:50:58.749Z,60.69
2018-06-28T09:51:58.755Z,60.63
2018-06-28T09:52:58.761Z,60.34
2018-06-28T09:53:58.769Z,60.05
2018-06-28T09:54:58.779Z,58.98
2018-06-28T09:55:58.797Z,58.50
2018-06-28T09:56:58.793Z,58.34
2018-06-28T09:57:58.798Z,57.08
2018-06-28T09:58:58.809Z,57.01
2018-06-28T09:59:58.818Z,54.98
2018-06-28T10:00:58.821Z,55.46
2018-06-28T10:01:58.826Z,55.56
2018-06-28T10:02:58.838Z,55.73
2018-06-28T10:03:58.846Z,54.85
2018-06-28T10:04:58.910Z,54.85
2018-06-28T10:05:58.861Z,55.43
2018-06-28T10:06:58.956Z,55.34
2018-06-28T10:07:58.876Z,55.34
2018-06-28T10:08:58.884Z,55.15
2018-06-28T10:09:58.891Z,55.92
2018-06-28T10:10:58.900Z,55.24
2018-06-28T10:11:58.910Z,55.27
2018-06-28T10:12:58.915Z,55.46
2018-06-28T10:13:58.918Z,54.79
2018-06-28T10:14:58.928Z,54.39
2018-06-28T10:15:58.935Z,54.11
2018-06-28T10:16:58.941Z,54.30
2018-06-28T10:17:58.973Z,54.11
2018-06-28T10:18:58.963Z,54.01
2018-06-28T10:19:58.972Z,54.21
2018-06-28T10:20:58.979Z,53.81
2018-06-28T10:21:58.986Z,53.81
2018-06-28T10:22:58.996Z,53.69
2018-06-28T10:23:59.000Z,53.99
2018-06-28T10:24:59.076Z,54.47
2018-06-28T10:25:59.014Z,53.99
2018-06-28T10:26:59.031Z,53.11
2018-06-28T10:27:59.041Z,52.53
2018-06-28T10:28:59.040Z,52.27
2018-06-28T10:29:59.052Z,52.17
2018-06-28T10:30:59.059Z,51.81
2018-06-28T10:31:59.060Z,52.20
2018-06-28T10:32:59.077Z,52.00
2018-06-28T10:33:59.084Z,52.12
2018-06-28T10:34:59.089Z,52.12
2018-06-28T10:35:59.099Z,52.61
2018-06-28T10:36:59.106Z,52.39
2018-06-28T10:37:59.115Z,52.12
2018-06-28T10:38:59.123Z,51.54
2018-06-28T10:39:59.132Z,50.77
2018-06-28T10:40:59.163Z,50.35
2018-06-28T10:41:59.148Z,50.55
2018-06-28T10:42:59.156Z,50.35
2018-06-28T10:43:59.164Z,50.48
2018-06-28T10:44:59.175Z,49.90
2018-06-28T10:45:59.182Z,49.99
2018-06-28T10:46:59.191Z,49.90
2018-06-28T10:47:59.212Z,49.92
2018-06-28T10:48:59.206Z,49.22
2018-06-28T10:49:59.216Z,49.15
2018-06-28T10:50:59.224Z,49.22
2018-06-28T10:51:59.234Z,49.22
2018-06-28T10:52:59.235Z,48.74
2018-06-28T10:53:59.255Z,49.22
2018-06-28T10:54:59.258Z,48.74
2018-06-28T10:55:59.267Z,48.61
2018-06-28T10:56:59.278Z,48.90
2018-06-28T10:57:59.286Z,49.19
2018-06-28T10:58:59.291Z,49.19
2018-06-28T10:59:59.306Z,49.02
2018-06-28T11:00:59.310Z,49.19
2018-06-28T11:01:59.325Z,49.41
2018-06-28T11:02:59.329Z,49.15
2018-06-28T11:03:59.332Z,49.34
2018-06-28T11:04:59.339Z,47.69
2018-06-28T11:05:59.355Z,47.19
2018-06-28T11:06:59.364Z,47.38
2018-06-28T11:07:59.373Z,47.69
2018-06-28T11:08:59.376Z,47.79
2018-06-28T11:09:59.388Z,47.30
2018-06-28T11:10:59.399Z,47.89
2018-06-28T11:11:59.409Z,48.15
2018-06-28T11:12:59.416Z,48.25
2018-06-28T11:13:59.426Z,48.54
2018-06-28T11:14:59.435Z,49.22
2018-06-28T11:15:59.452Z,48.93
2018-06-28T11:16:59.451Z,49.12
2018-06-28T11:17:59.460Z,49.61
2018-06-28T11:18:59.468Z,49.80
2018-06-28T11:19:59.479Z,49.77
2018-06-28T11:20:59.488Z,50.09
2018-06-28T11:21:59.495Z,50.48
2018-06-28T11:22:59.502Z,50.87
2018-06-28T11:23:59.510Z,50.48
2018-06-28T11:24:59.521Z,50.26
2018-06-28T11:25:59.532Z,50.45
2018-06-28T11:26:59.531Z,51.04
2018-06-28T11:27:59.549Z,51.13
2018-06-28T11:28:59.553Z,51.81
2018-06-28T11:29:59.566Z,52.17
2018-06-28T11:30:59.572Z,52.53
2018-06-28T11:31:59.581Z,52.34
2018-06-28T11:32:59.589Z,52.92
2018-06-28T11:33:59.612Z,52.73
2018-06-28T11:34:59.604Z,53.31
2018-06-28T11:35:59.611Z,53.31
2018-06-28T11:36:59.685Z,52.63
2018-06-28T11:37:59.628Z,52.51
2018-06-28T11:38:59.635Z,52.12
2018-06-28T11:39:59.645Z,53.09
2018-06-28T11:40:59.651Z,52.89
2018-06-28T11:41:59.674Z,53.57
2018-06-28T11:42:59.666Z,53.96
2018-06-28T11:43:59.673Z,53.86
2018-06-28T11:44:59.681Z,54.05
2018-06-28T11:45:59.690Z,53.77
2018-06-28T11:46:59.704Z,53.86
2018-06-28T11:47:59.708Z,54.25
2018-06-28T11:48:59.713Z,54.15
2018-06-28T11:49:59.720Z,55.02
2018-06-28T11:50:59.724Z,55.02
2018-06-28T11:51:59.737Z,54.80
2018-06-28T11:52:59.745Z,54.90
2018-06-28T11:53:59.749Z,55.83
2018-06-28T11:54:59.757Z,56.05
2018-06-28T11:55:59.776Z,55.65
2018-06-28T11:56:59.766Z,55.67
2018-06-28T11:57:59.780Z,55.57
2018-06-28T11:58:59.787Z,55.65
2018-06-28T11:59:59.794Z,56.80
2018-06-28T12:00:59.802Z,56.63
2018-06-28T12:01:59.809Z,56.73
2018-06-28T12:02:59.817Z,56.54
2018-06-28T12:03:59.821Z,56.54
2018-06-28T12:04:59.828Z,56.54
2018-06-28T12:05:59.834Z,56.93
2018-06-28T12:06:59.845Z,56.83
2018-06-28T12:07:59.852Z,57.03
2018-06-28T12:08:59.857Z,57.03
2018-06-28T12:09:59.865Z,56.99
2018-06-28T12:10:59.871Z,57.03
2018-06-28T12:11:59.876Z,57.48
2018-06-28T12:12:59.887Z,57.12
2018-06-28T12:13:59.891Z,57.31
2018-06-28T12:14:59.901Z,57.31
2018-06-28T12:15:59.910Z,57.70
2018-06-28T12:16:59.911Z,58.18
2018-06-28T12:17:59.920Z,57.60
2018-06-28T12:18:59.937Z,57.79
2018-06-28T12:19:59.933Z,58.18
2018-06-28T12:20:59.940Z,58.28
2018-06-28T12:21:59.948Z,58.73
2018-06-28T12:22:59.956Z,59.34
2018-06-28T12:23:59.967Z,59.05
2018-06-28T12:24:59.963Z,58.83
2018-06-28T12:25:59.976Z,60.11
2018-06-28T12:26:59.977Z,60.18
2018-06-28T12:27:59.991Z,59.70
2018-06-28T12:29:00.007Z,59.80
2018-06-28T12:29:59.998Z,60.86
2018-06-28T12:31:00.021Z,59.41
2018-06-28T12:32:00.019Z,60.28
2018-06-28T12:33:00.022Z,60.76
2018-06-28T12:34:00.029Z,60.76
2018-06-28T12:35:00.037Z,61.34
2018-06-28T12:36:00.043Z,61.83
2018-06-28T12:37:00.046Z,60.54
2018-06-28T12:38:00.060Z,62.89
2018-06-28T12:39:00.059Z,62.79
2018-06-28T12:40:00.068Z,62.76
2018-06-28T12:41:00.077Z,62.76
2018-06-28T12:42:00.081Z,62.95
2018-06-28T12:43:00.092Z,63.73
2018-06-28T12:44:00.096Z,64.11
2018-06-28T12:45:00.111Z,64.69
2018-06-28T12:46:00.110Z,63.92
2018-06-28T12:47:00.117Z,65.56
2018-06-28T12:48:00.126Z,64.59
2018-06-28T12:49:00.130Z,65.66
2018-06-28T12:50:00.139Z,65.95
2018-06-28T12:51:00.146Z,66.91
2018-06-28T12:52:00.153Z,65.75
2018-06-28T12:53:00.155Z,66.43